sensor_id;sensor_type;location;lat;lon;timestamp;pressure;altitude;pressure_sealevel;temperature;humidity
64200;BME280;50516;52.272;5.136;2023-12-29T00:01:56;100541.81;;;9.68;100.00
64200;BME280;50516;52.272;5.136;2023-12-29T00:04:21;100548.41;;;9.62;100.00
64200;BME280;50516;52.272;5.136;2023-12-29T00:06:46;100551.44;;;9.61;100.00
64200;BME280;50516;52.272;5.136;2023-12-29T00:09:12;100547.84;;;9.65;100.00
64200;BME280;50516;52.272;5.136;2023-12-29T00:11:38;100543.47;;;9.64;100.00
64200;BME280;50516;52.272;5.136;2023-12-29T00:14:03;100528.13;;;9.68;100.00
64200;BME280;50516;52.272;5.136;2023-12-29T00:16:28;100537.72;;;9.61;100.00
64200;BME280;50516;52.272;5.136;2023-12-29T00:18:53;100540.75;;;9.64;100.00
64200;BME280;50516;52.272;5.136;2023-12-29T00:21:19;100551.44;;;9.61;100.00
64200;BME280;50516;52.272;5.136;2023-12-29T00:23:50;100544.28;;;9.65;100.00
64200;BME280;50516;52.272;5.136;2023-12-29T00:26:18;100547.56;;;9.67;100.00
64200;BME280;50516;52.272;5.136;2023-12-29T00:28:44;100540.75;;;9.69;100.00
64200;BME280;50516;52.272;5.136;2023-12-29T00:31:16;100534.72;;;9.67;100.00
64200;BME280;50516;52.272;5.136;2023-12-29T00:33:47;100513.59;;;9.68;100.00
64200;BME280;50516;52.272;5.136;2023-12-29T00:36:17;100512.78;;;9.67;100.00
64200;BME280;50516;52.272;5.136;2023-12-29T00:38:43;100514.44;;;9.79;100.00
64200;BME280;50516;52.272;5.136;2023-12-29T00:41:09;100507.28;;;9.73;100.00
64200;BME280;50516;52.272;5.136;2023-12-29T00:43:34;100481.53;;;9.63;100.00
64200;BME280;50516;52.272;5.136;2023-12-29T00:46:04;100493.03;;;9.60;100.00
64200;BME280;50516;52.272;5.136;2023-12-29T00:48:30;100494.13;;;9.64;100.00
64200;BME280;50516;52.272;5.136;2023-12-29T00:50:56;100492.22;;;9.60;100.00
64200;BME280;50516;52.272;5.136;2023-12-29T00:53:21;100496.03;;;9.64;100.00
64200;BME280;50516;52.272;5.136;2023-12-29T00:55:46;100499.63;;;9.64;100.00
64200;BME280;50516;52.272;5.136;2023-12-29T00:58:14;100493.03;;;9.60;100.00
64200;BME280;50516;52.272;5.136;2023-12-29T01:00:40;100501.25;;;9.65;100.00
64200;BME280;50516;52.272;5.136;2023-12-29T01:03:07;100500.44;;;9.70;100.00
64200;BME280;50516;52.272;5.136;2023-12-29T01:05:33;100503.44;;;9.63;100.00
64200;BME280;50516;52.272;5.136;2023-12-29T01:07:58;100491.94;;;9.66;100.00
64200;BME280;50516;52.272;5.136;2023-12-29T01:10:24;100489.19;;;9.66;100.00
64200;BME280;50516;52.272;5.136;2023-12-29T01:12:49;100499.59;;;9.75;100.00
64200;BME280;50516;52.272;5.136;2023-12-29T01:15:17;100497.94;;;9.74;100.00
64200;BME280;50516;52.272;5.136;2023-12-29T01:17:43;100495.50;;;9.72;100.00
64200;BME280;50516;52.272;5.136;2023-12-29T01:20:14;100495.22;;;9.79;100.00
64200;BME280;50516;52.272;5.136;2023-12-29T01:22:39;100490.56;;;9.79;100.00
64200;BME280;50516;52.272;5.136;2023-12-29T01:25:05;100487.81;;;9.79;100.00
64200;BME280;50516;52.272;5.136;2023-12-29T01:27:31;100490.84;;;9.78;100.00
64200;BME280;50516;52.272;5.136;2023-12-29T01:29:58;100480.94;;;9.77;100.00
64200;BME280;50516;52.272;5.136;2023-12-29T01:32:25;100479.31;;;9.76;100.00
64200;BME280;50516;52.272;5.136;2023-12-29T01:34:52;100486.72;;;9.75;100.00
64200;BME280;50516;52.272;5.136;2023-12-29T01:37:17;100487.00;;;9.79;100.00
64200;BME280;50516;52.272;5.136;2023-12-29T01:39:42;100480.69;;;9.73;100.00
64200;BME280;50516;52.272;5.136;2023-12-29T01:42:08;100493.31;;;9.74;100.00
64200;BME280;50516;52.272;5.136;2023-12-29T01:44:33;100488.09;;;9.73;100.00
64200;BME280;50516;52.272;5.136;2023-12-29T01:47:02;100491.91;;;9.77;100.00
64200;BME280;50516;52.272;5.136;2023-12-29T01:49:31;100482.06;;;9.71;100.00
64200;BME280;50516;52.272;5.136;2023-12-29T01:51:58;100482.06;;;9.71;100.00
64200;BME280;50516;52.272;5.136;2023-12-29T01:54:27;100468.91;;;9.67;100.00
64200;BME280;50516;52.272;5.136;2023-12-29T01:56:54;100481.50;;;9.74;100.00
64200;BME280;50516;52.272;5.136;2023-12-29T01:59:22;100474.94;;;9.69;100.00
64200;BME280;50516;52.272;5.136;2023-12-29T02:01:48;100479.88;;;9.67;100.00
64200;BME280;50516;52.272;5.136;2023-12-29T02:04:14;100489.47;;;9.65;100.00
64200;BME280;50516;52.272;5.136;2023-12-29T02:06:40;100494.69;;;9.66;100.00
64200;BME280;50516;52.272;5.136;2023-12-29T02:09:06;100508.66;;;9.70;100.00
64200;BME280;50516;52.272;5.136;2023-12-29T02:11:32;100504.56;;;9.67;100.00
64200;BME280;50516;52.272;5.136;2023-12-29T02:14:01;100505.66;;;9.82;100.00
64200;BME280;50516;52.272;5.136;2023-12-29T02:19:37;100502.06;;;9.76;100.00
64200;BME280;50516;52.272;5.136;2023-12-29T02:22:04;100509.50;;;9.71;100.00
64200;BME280;50516;52.272;5.136;2023-12-29T02:24:29;100506.75;;;9.71;100.00
64200;BME280;50516;52.272;5.136;2023-12-29T02:29:43;100505.63;;;9.72;100.00
64200;BME280;50516;52.272;5.136;2023-12-29T02:32:16;100505.63;;;9.72;100.00
64200;BME280;50516;52.272;5.136;2023-12-29T02:34:44;100504.00;;;9.71;100.00
64200;BME280;50516;52.272;5.136;2023-12-29T02:37:12;100513.31;;;9.75;100.00
64200;BME280;50516;52.272;5.136;2023-12-29T02:39:37;100501.53;;;9.74;100.00
64200;BME280;50516;52.272;5.136;2023-12-29T02:42:04;100495.50;;;9.72;100.00
64200;BME280;50516;52.272;5.136;2023-12-29T02:44:29;100492.75;;;9.67;100.00
64200;BME280;50516;52.272;5.136;2023-12-29T02:46:55;100501.53;;;9.69;100.00
64200;BME280;50516;52.272;5.136;2023-12-29T02:49:23;100486.19;;;9.63;100.00
64200;BME280;50516;52.272;5.136;2023-12-29T02:51:48;100489.47;;;9.60;100.00
64200;BME280;50516;52.272;5.136;2023-12-29T02:54:15;100494.13;;;9.64;100.00
64200;BME280;50516;52.272;5.136;2023-12-29T02:56:40;100490.84;;;9.67;100.00
64200;BME280;50516;52.272;5.136;2023-12-29T02:59:06;100491.94;;;9.61;100.00
64200;BME280;50516;52.272;5.136;2023-12-29T03:01:34;100480.72;;;9.63;100.00
64200;BME280;50516;52.272;5.136;2023-12-29T03:04:00;100491.66;;;9.63;100.00
64200;BME280;50516;52.272;5.136;2023-12-29T03:06:26;100496.88;;;9.64;100.00
64200;BME280;50516;52.272;5.136;2023-12-29T03:08:51;100500.97;;;9.67;100.00
64200;BME280;50516;52.272;5.136;2023-12-29T03:11:16;100502.91;;;9.66;100.00
64200;BME280;50516;52.272;5.136;2023-12-29T03:13:42;100510.03;;;9.67;100.00
64200;BME280;50516;52.272;5.136;2023-12-29T03:16:08;100506.19;;;9.74;100.00
64200;BME280;50516;52.272;5.136;2023-12-29T03:18:36;100507.84;;;9.69;100.00
64200;BME280;50516;52.272;5.136;2023-12-29T03:21:05;100514.72;;;9.72;100.00
64200;BME280;50516;52.272;5.136;2023-12-29T03:23:30;100513.88;;;9.66;100.00
64200;BME280;50516;52.272;5.136;2023-12-29T03:25:55;100515.50;;;9.62;100.00
64200;BME280;50516;52.272;5.136;2023-12-29T03:28:21;100508.94;;;9.58;100.00
64200;BME280;50516;52.272;5.136;2023-12-29T03:30:46;100508.09;;;9.53;100.00
64200;BME280;50516;52.272;5.136;2023-12-29T03:33:12;100507.28;;;9.52;100.00
64200;BME280;50516;52.272;5.136;2023-12-29T03:35:37;100520.44;;;9.55;100.00
64200;BME280;50516;52.272;5.136;2023-12-29T03:38:04;100514.69;;;9.57;100.00
64200;BME280;50516;52.272;5.136;2023-12-29T03:40:29;100508.94;;;9.63;100.00
64200;BME280;50516;52.272;5.136;2023-12-29T03:42:54;100500.97;;;9.62;100.00
64200;BME280;50516;52.272;5.136;2023-12-29T03:45:20;100499.88;;;9.68;100.00
64200;BME280;50516;52.272;5.136;2023-12-29T03:47:45;100499.34;;;9.66;100.00
64200;BME280;50516;52.272;5.136;2023-12-29T03:50:10;100501.53;;;9.59;100.00
64200;BME280;50516;52.272;5.136;2023-12-29T03:52:36;100488.09;;;9.62;100.00
64200;BME280;50516;52.272;5.136;2023-12-29T03:55:02;100475.50;;;9.61;100.00
64200;BME280;50516;52.272;5.136;2023-12-29T03:57:34;100481.25;;;9.65;100.00
64200;BME280;50516;52.272;5.136;2023-12-29T03:59:59;100478.25;;;9.61;100.00
64200;BME280;50516;52.272;5.136;2023-12-29T04:02:25;100478.78;;;9.58;100.00
64200;BME280;50516;52.272;5.136;2023-12-29T04:04:50;100476.59;;;9.60;100.00
64200;BME280;50516;52.272;5.136;2023-12-29T04:07:15;100478.25;;;9.61;100.00
64200;BME280;50516;52.272;5.136;2023-12-29T04:09:44;100480.44;;;9.64;100.00
64200;BME280;50516;52.272;5.136;2023-12-29T04:12:12;100489.75;;;9.79;100.00
64200;BME280;50516;52.272;5.136;2023-12-29T04:14:37;100477.66;;;9.90;100.00
64200;BME280;50516;52.272;5.136;2023-12-29T04:17:03;100482.88;;;9.92;100.00
64200;BME280;50516;52.272;5.136;2023-12-29T04:19:30;100481.25;;;9.85;100.00
64200;BME280;50516;52.272;5.136;2023-12-29T04:21:55;100477.38;;;9.86;100.00
64200;BME280;50516;52.272;5.136;2023-12-29T04:24:21;100486.16;;;9.89;100.00
64200;BME280;50516;52.272;5.136;2023-12-29T04:26:46;100488.06;;;9.88;100.00
64200;BME280;50516;52.272;5.136;2023-12-29T04:29:12;100492.47;;;9.74;100.00
64200;BME280;50516;52.272;5.136;2023-12-29T04:31:37;100494.13;;;9.75;100.00
64200;BME280;50516;52.272;5.136;2023-12-29T04:34:03;100490.84;;;9.67;100.00
64200;BME280;50516;52.272;5.136;2023-12-29T04:36:28;100480.44;;;9.69;100.00
64200;BME280;50516;52.272;5.136;2023-12-29T04:38:53;100478.78;;;9.68;100.00
64200;BME280;50516;52.272;5.136;2023-12-29T04:41:19;100488.38;;;9.71;100.00
64200;BME280;50516;52.272;5.136;2023-12-29T04:43:44;100476.88;;;9.69;100.00
64200;BME280;50516;52.272;5.136;2023-12-29T04:46:09;100471.09;;;9.81;100.00
64200;BME280;50516;52.272;5.136;2023-12-29T04:48:38;100478.50;;;9.70;100.00
64200;BME280;50516;52.272;5.136;2023-12-29T04:51:04;100471.13;;;9.71;100.00
64200;BME280;50516;52.272;5.136;2023-12-29T04:53:29;100482.63;;;9.67;100.00
64200;BME280;50516;52.272;5.136;2023-12-29T04:55:54;100471.66;;;9.67;100.00
64200;BME280;50516;52.272;5.136;2023-12-29T04:58:20;100471.66;;;9.67;100.00
64200;BME280;50516;52.272;5.136;2023-12-29T05:00:45;100465.06;;;9.68;100.00
64200;BME280;50516;52.272;5.136;2023-12-29T05:03:10;100453.53;;;9.72;100.00
64200;BME280;50516;52.272;5.136;2023-12-29T05:05:36;100460.97;;;9.71;100.00
64200;BME280;50516;52.272;5.136;2023-12-29T05:08:01;100457.38;;;9.65;100.00
64200;BME280;50516;52.272;5.136;2023-12-29T05:10:26;100454.66;;;9.65;100.00
64200;BME280;50516;52.272;5.136;2023-12-29T05:12:52;100465.06;;;9.68;100.00
64200;BME280;50516;52.272;5.136;2023-12-29T05:15:17;100465.63;;;9.71;100.00
64200;BME280;50516;52.272;5.136;2023-12-29T05:17:46;100479.06;;;9.72;100.00
64200;BME280;50516;52.272;5.136;2023-12-29T05:20:11;100484.81;;;9.76;100.00
64200;BME280;50516;52.272;5.136;2023-12-29T05:22:36;100469.44;;;9.80;100.00
64200;BME280;50516;52.272;5.136;2023-12-29T05:25:02;100480.13;;;9.76;100.00
64200;BME280;50516;52.272;5.136;2023-12-29T05:27:28;100463.16;;;9.74;100.00
64200;BME280;50516;52.272;5.136;2023-12-29T05:29:53;100471.63;;;9.78;100.00
64200;BME280;50516;52.272;5.136;2023-12-29T05:32:19;100451.06;;;9.75;100.00
64200;BME280;50516;52.272;5.136;2023-12-29T05:34:44;100463.97;;;9.75;100.00
64200;BME280;50516;52.272;5.136;2023-12-29T05:37:09;100456.56;;;9.75;100.00
64200;BME280;50516;52.272;5.136;2023-12-29T05:39:35;100474.41;;;9.73;100.00
64200;BME280;50516;52.272;5.136;2023-12-29T05:42:00;100463.97;;;9.75;100.00
64200;BME280;50516;52.272;5.136;2023-12-29T05:44:25;100466.16;;;9.78;100.00
64200;BME280;50516;52.272;5.136;2023-12-29T05:46:51;100477.38;;;9.81;100.00
64200;BME280;50516;52.272;5.136;2023-12-29T05:49:16;100474.91;;;9.80;100.00
64200;BME280;50516;52.272;5.136;2023-12-29T05:51:43;100461.75;;;9.77;100.00
64200;BME280;50516;52.272;5.136;2023-12-29T05:54:19;100459.28;;;9.75;100.00
64200;BME280;50516;52.272;5.136;2023-12-29T05:56:44;100465.34;;;9.72;100.00
64200;BME280;50516;52.272;5.136;2023-12-29T05:59:10;100453.53;;;9.77;100.00
64200;BME280;50516;52.272;5.136;2023-12-29T06:01:35;100454.63;;;9.81;100.00
64200;BME280;50516;52.272;5.136;2023-12-29T06:04:03;100438.47;;;9.79;100.00
64200;BME280;50516;52.272;5.136;2023-12-29T06:06:29;100452.72;;;9.81;100.00
64200;BME280;50516;52.272;5.136;2023-12-29T06:08:57;100447.50;;;9.80;100.00
64200;BME280;50516;52.272;5.136;2023-12-29T06:11:23;100450.81;;;9.82;100.00
64200;BME280;50516;52.272;5.136;2023-12-29T06:13:48;100457.09;;;9.82;100.00
64200;BME280;50516;52.272;5.136;2023-12-29T06:16:20;100449.69;;;9.83;100.00
64200;BME280;50516;52.272;5.136;2023-12-29T06:18:45;100447.50;;;9.80;100.00
64200;BME280;50516;52.272;5.136;2023-12-29T06:21:14;100467.53;;;9.85;100.00
64200;BME280;50516;52.272;5.136;2023-12-29T06:23:39;100460.38;;;9.84;100.00
64200;BME280;50516;52.272;5.136;2023-12-29T06:26:04;100450.22;;;9.85;100.00
64200;BME280;50516;52.272;5.136;2023-12-29T06:28:29;100460.09;;;9.91;100.00
64200;BME280;50516;52.272;5.136;2023-12-29T06:30:55;100453.28;;;9.83;100.00
64200;BME280;50516;52.272;5.136;2023-12-29T06:33:20;100444.75;;;9.85;100.00
64200;BME280;50516;52.272;5.136;2023-12-29T06:35:47;100434.34;;;9.82;100.00
64200;BME280;50516;52.272;5.136;2023-12-29T06:38:12;100444.75;;;9.80;100.00
64200;BME280;50516;52.272;5.136;2023-12-29T06:40:38;100447.25;;;9.76;100.00
64200;BME280;50516;52.272;5.136;2023-12-29T06:43:04;100448.59;;;9.74;100.00
64200;BME280;50516;52.272;5.136;2023-12-29T06:45:29;100453.28;;;9.73;100.00
64200;BME280;50516;52.272;5.136;2023-12-29T06:47:55;100450.53;;;9.68;100.00
64200;BME280;50516;52.272;5.136;2023-12-29T06:50:20;100447.25;;;9.76;100.00
64200;BME280;50516;52.272;5.136;2023-12-29T06:52:46;100453.28;;;9.73;100.00
64200;BME280;50516;52.272;5.136;2023-12-29T06:55:11;100459.56;;;9.74;100.00
64200;BME280;50516;52.272;5.136;2023-12-29T06:57:45;100459.28;;;9.75;100.00
64200;BME280;50516;52.272;5.136;2023-12-29T07:00:11;100467.53;;;9.80;100.00
64200;BME280;50516;52.272;5.136;2023-12-29T07:02:39;100465.34;;;9.77;100.00
64200;BME280;50516;52.272;5.136;2023-12-29T07:05:08;100472.44;;;9.78;100.00
64200;BME280;50516;52.272;5.136;2023-12-29T07:07:35;100474.91;;;9.80;100.00
64200;BME280;50516;52.272;5.136;2023-12-29T07:10:01;100465.88;;;9.79;100.00
64200;BME280;50516;52.272;5.136;2023-12-29T07:12:26;100471.09;;;9.76;100.00
64200;BME280;50516;52.272;5.136;2023-12-29T07:14:51;100472.75;;;9.82;100.00
64200;BME280;50516;52.272;5.136;2023-12-29T07:17:17;100478.50;;;9.75;100.00
64200;BME280;50516;52.272;5.136;2023-12-29T07:19:42;100457.09;;;9.82;100.00
64200;BME280;50516;52.272;5.136;2023-12-29T07:22:07;100466.69;;;9.95;100.00
64200;BME280;50516;52.272;5.136;2023-12-29T07:24:33;100473.53;;;9.93;100.00
64200;BME280;50516;52.272;5.136;2023-12-29T07:27:00;100469.16;;;9.81;100.00
64200;BME280;50516;52.272;5.136;2023-12-29T07:29:25;100475.75;;;9.80;100.00
64200;BME280;50516;52.272;5.136;2023-12-29T07:31:51;100481.25;;;9.80;100.00
64200;BME280;50516;52.272;5.136;2023-12-29T07:34:16;100477.66;;;9.80;100.00
64200;BME280;50516;52.272;5.136;2023-12-29T07:36:41;100471.09;;;9.81;100.00
64200;BME280;50516;52.272;5.136;2023-12-29T07:39:07;100485.06;;;9.79;100.00
64200;BME280;50516;52.272;5.136;2023-12-29T07:41:33;100476.03;;;9.84;100.00
64200;BME280;50516;52.272;5.136;2023-12-29T07:43:59;100476.84;;;9.84;100.00
64200;BME280;50516;52.272;5.136;2023-12-29T07:46:25;100466.41;;;9.81;100.00
64200;BME280;50516;52.272;5.136;2023-12-29T07:48:52;100477.94;;;9.78;100.00
64200;BME280;50516;52.272;5.136;2023-12-29T07:51:27;100469.97;;;9.77;100.00
64200;BME280;50516;52.272;5.136;2023-12-29T07:53:52;100467.25;;;9.82;100.00
64200;BME280;50516;52.272;5.136;2023-12-29T07:56:18;100475.75;;;9.80;100.00
64200;BME280;50516;52.272;5.136;2023-12-29T07:58:45;100474.91;;;9.80;100.00
64200;BME280;50516;52.272;5.136;2023-12-29T08:01:20;100462.06;;;9.80;100.00
64200;BME280;50516;52.272;5.136;2023-12-29T08:03:45;100473.00;;;9.75;100.00
64200;BME280;50516;52.272;5.136;2023-12-29T08:06:10;100469.19;;;9.76;100.00
64200;BME280;50516;52.272;5.136;2023-12-29T08:08:37;100478.50;;;9.75;100.00
64200;BME280;50516;52.272;5.136;2023-12-29T08:11:03;100484.53;;;9.77;100.00
64200;BME280;50516;52.272;5.136;2023-12-29T08:13:28;100480.13;;;9.76;100.00
64200;BME280;50516;52.272;5.136;2023-12-29T08:15:57;100482.88;;;9.81;100.00
64200;BME280;50516;52.272;5.136;2023-12-29T08:18:22;100477.94;;;9.78;100.00
64200;BME280;50516;52.272;5.136;2023-12-29T08:20:47;100492.47;;;9.84;100.00
64200;BME280;50516;52.272;5.136;2023-12-29T08:23:13;100490.25;;;9.91;100.00
64200;BME280;50516;52.272;5.136;2023-12-29T08:25:38;100493.56;;;9.98;100.00
64200;BME280;50516;52.272;5.136;2023-12-29T08:28:09;100495.22;;;9.89;100.00
64200;BME280;50516;52.272;5.136;2023-12-29T08:30:35;100492.44;;;9.94;100.00
64200;BME280;50516;52.272;5.136;2023-12-29T08:33:03;100496.84;;;10.00;100.00
64200;BME280;50516;52.272;5.136;2023-12-29T08:35:29;100476.28;;;10.03;100.00
64200;BME280;50516;52.272;5.136;2023-12-29T08:37:54;100486.97;;;10.04;100.00
64200;BME280;50516;52.272;5.136;2023-12-29T08:40:20;100474.94;;;9.90;100.00
64200;BME280;50516;52.272;5.136;2023-12-29T08:42:45;100496.84;;;9.85;100.00
64200;BME280;50516;52.272;5.136;2023-12-29T08:45:10;100492.50;;;9.79;100.00
64200;BME280;50516;52.272;5.136;2023-12-29T08:47:39;100496.88;;;9.90;100.00
64200;BME280;50516;52.272;5.136;2023-12-29T08:50:04;100497.66;;;10.01;100.00
64200;BME280;50516;52.272;5.136;2023-12-29T08:52:30;100500.13;;;10.02;100.00
64200;BME280;50516;52.272;5.136;2023-12-29T08:54:55;100502.31;;;10.05;100.00
64200;BME280;50516;52.272;5.136;2023-12-29T08:57:20;100499.84;;;10.04;100.00
64200;BME280;50516;52.272;5.136;2023-12-29T08:59:46;100497.66;;;9.96;100.00
64200;BME280;50516;52.272;5.136;2023-12-29T09:02:17;100494.09;;;9.95;100.00
64200;BME280;50516;52.272;5.136;2023-12-29T09:04:43;100489.19;;;9.92;100.00
64200;BME280;50516;52.272;5.136;2023-12-29T09:07:08;100492.19;;;9.91;100.00
64200;BME280;50516;52.272;5.136;2023-12-29T09:09:33;100498.50;;;9.91;100.00
64200;BME280;50516;52.272;5.136;2023-12-29T09:11:58;100490.81;;;9.93;100.00
64200;BME280;50516;52.272;5.136;2023-12-29T09:14:24;100481.75;;;9.98;100.00
64200;BME280;50516;52.272;5.136;2023-12-29T09:16:49;100485.84;;;10.05;100.00
64200;BME280;50516;52.272;5.136;2023-12-29T09:19:18;100485.28;;;10.14;100.00
64200;BME280;50516;52.272;5.136;2023-12-29T09:21:46;100491.88;;;10.13;100.00
64200;BME280;50516;52.272;5.136;2023-12-29T09:24:14;100488.56;;;10.11;100.00
64200;BME280;50516;52.272;5.136;2023-12-29T09:26:39;100501.72;;;10.24;100.00
64200;BME280;50516;52.272;5.136;2023-12-29T09:29:05;100486.34;;;10.28;100.00
64200;BME280;50516;52.272;5.136;2023-12-29T09:31:30;100500.63;;;10.40;100.00
64200;BME280;50516;52.272;5.136;2023-12-29T09:33:56;100485.78;;;10.41;100.00
64200;BME280;50516;52.272;5.136;2023-12-29T09:36:22;100499.50;;;10.47;100.00
64200;BME280;50516;52.272;5.136;2023-12-29T09:38:54;100504.69;;;10.53;100.00
64200;BME280;50516;52.272;5.136;2023-12-29T09:41:20;100507.19;;;10.50;100.00
64200;BME280;50516;52.272;5.136;2023-12-29T09:43:48;100492.91;;;10.53;100.00
64200;BME280;50516;52.272;5.136;2023-12-29T09:46:16;100505.75;;;10.57;100.00
64200;BME280;50516;52.272;5.136;2023-12-29T09:48:47;100514.31;;;10.46;100.00
64200;BME280;50516;52.272;5.136;2023-12-29T09:51:15;100521.75;;;10.40;100.00
64200;BME280;50516;52.272;5.136;2023-12-29T09:53:41;100521.44;;;10.41;100.00
64200;BME280;50516;52.272;5.136;2023-12-29T09:56:09;100526.94;;;10.47;100.00
64200;BME280;50516;52.272;5.136;2023-12-29T09:58:35;100535.97;;;10.52;100.00
64200;BME280;50516;52.272;5.136;2023-12-29T10:01:04;100529.63;;;10.62;100.00
64200;BME280;50516;52.272;5.136;2023-12-29T10:03:30;100523.59;;;10.60;100.00
64200;BME280;50516;52.272;5.136;2023-12-29T10:05:56;100532.94;;;10.64;100.00
64200;BME280;50516;52.272;5.136;2023-12-29T10:08:27;100541.47;;;10.52;100.00
64200;BME280;50516;52.272;5.136;2023-12-29T10:10:57;100533.75;;;10.65;100.00
64200;BME280;50516;52.272;5.136;2023-12-29T10:13:25;100544.97;;;10.73;100.00
64200;BME280;50516;52.272;5.136;2023-12-29T10:16:08;100550.69;;;10.77;100.00
64200;BME280;50516;52.272;5.136;2023-12-29T10:21:40;100537.25;;;10.81;100.00
64200;BME280;50516;52.272;5.136;2023-12-29T10:24:17;100538.63;;;10.78;100.00
64200;BME280;50516;52.272;5.136;2023-12-29T10:26:44;100533.94;;;10.78;100.00
64200;BME280;50516;52.272;5.136;2023-12-29T10:29:11;100552.16;;;10.59;100.00
64200;BME280;50516;52.272;5.136;2023-12-29T10:31:39;100540.94;;;10.45;100.00
64200;BME280;50516;52.272;5.136;2023-12-29T10:34:21;100538.19;;;10.50;100.00
64200;BME280;50516;52.272;5.136;2023-12-29T10:36:54;100565.66;;;10.40;100.00
64200;BME280;50516;52.272;5.136;2023-12-29T10:39:19;100574.16;;;10.23;100.00
64200;BME280;50516;52.272;5.136;2023-12-29T10:41:45;100556.06;;;10.17;100.00
64200;BME280;50516;52.272;5.136;2023-12-29T10:44:10;100560.72;;;10.16;100.00
64200;BME280;50516;52.272;5.136;2023-12-29T10:46:35;100565.09;;;10.28;100.00
64200;BME280;50516;52.272;5.136;2023-12-29T10:49:10;100574.09;;;10.59;100.00
64200;BME280;50516;52.272;5.136;2023-12-29T10:51:37;100572.19;;;10.65;100.00
64200;BME280;50516;52.272;5.136;2023-12-29T10:54:02;100577.41;;;10.61;100.00
64200;BME280;50516;52.272;5.136;2023-12-29T10:56:28;100580.13;;;10.71;100.00
64200;BME280;50516;52.272;5.136;2023-12-29T10:59:02;100579.31;;;10.66;100.00
64200;BME280;50516;52.272;5.136;2023-12-29T11:01:33;100580.84;;;10.98;100.00
64200;BME280;50516;52.272;5.136;2023-12-29T11:04:04;100574.75;;;11.06;100.00
64200;BME280;50516;52.272;5.136;2023-12-29T11:06:40;100573.91;;;11.10;100.00
64200;BME280;50516;52.272;5.136;2023-12-29T11:09:05;100581.06;;;11.11;100.00
64200;BME280;50516;52.272;5.136;2023-12-29T11:11:31;100577.75;;;11.14;100.00
64200;BME280;50516;52.272;5.136;2023-12-29T11:13:59;100581.81;;;11.27;100.00
64200;BME280;50516;52.272;5.136;2023-12-29T11:16:31;100579.41;;;11.10;100.00
64200;BME280;50516;52.272;5.136;2023-12-29T11:18:58;100588.78;;;11.09;100.00
64200;BME280;50516;52.272;5.136;2023-12-29T11:21:25;100584.91;;;11.10;100.00
64200;BME280;50516;52.272;5.136;2023-12-29T11:23:51;100592.63;;;11.08;100.00
64200;BME280;50516;52.272;5.136;2023-12-29T11:26:18;100592.91;;;11.07;100.00
64200;BME280;50516;52.272;5.136;2023-12-29T11:28:46;100584.41;;;11.03;100.00
64200;BME280;50516;52.272;5.136;2023-12-29T11:31:15;100584.97;;;11.00;100.00
64200;BME280;50516;52.272;5.136;2023-12-29T11:33:44;100586.59;;;11.01;100.00
64200;BME280;50516;52.272;5.136;2023-12-29T11:36:28;100583.81;;;11.11;100.00
64200;BME280;50516;52.272;5.136;2023-12-29T11:39:06;100585.47;;;11.07;100.00
64200;BME280;50516;52.272;5.136;2023-12-29T11:44:11;100597.72;;;11.25;100.00
64200;BME280;50516;52.272;5.136;2023-12-29T11:46:38;100590.63;;;11.24;100.00
64200;BME280;50516;52.272;5.136;2023-12-29T11:49:05;100597.50;;;11.22;100.00
64200;BME280;50516;52.272;5.136;2023-12-29T11:51:41;100599.41;;;11.26;100.00
64200;BME280;50516;52.272;5.136;2023-12-29T11:54:09;100589.78;;;11.24;100.00
64200;BME280;50516;52.272;5.136;2023-12-29T11:56:36;100595.31;;;11.19;100.00
64200;BME280;50516;52.272;5.136;2023-12-29T11:59:18;100590.06;;;11.27;100.00
64200;BME280;50516;52.272;5.136;2023-12-29T12:01:54;100593.34;;;11.29;100.00
64200;BME280;50516;52.272;5.136;2023-12-29T12:04:40;100594.50;;;11.18;100.00
64200;BME280;50516;52.272;5.136;2023-12-29T12:09:51;100590.06;;;11.27;100.00
64200;BME280;50516;52.272;5.136;2023-12-29T12:12:38;100580.97;;;11.32;100.00
64200;BME280;50516;52.272;5.136;2023-12-29T12:15:04;100583.16;;;11.30;100.00
64200;BME280;50516;52.272;5.136;2023-12-29T12:17:50;100580.38;;;11.35;100.00
64200;BME280;50516;52.272;5.136;2023-12-29T12:20:18;100583.16;;;11.30;100.00
64200;BME280;50516;52.272;5.136;2023-12-29T12:22:44;100583.72;;;11.27;100.00
64200;BME280;50516;52.272;5.136;2023-12-29T12:25:11;100584.56;;;11.27;100.00
64200;BME280;50516;52.272;5.136;2023-12-29T12:27:38;100586.47;;;11.32;99.14
64200;BME280;50516;52.272;5.136;2023-12-29T12:30:07;100574.91;;;11.30;100.00
64200;BME280;50516;52.272;5.136;2023-12-29T12:32:38;100572.41;;;11.33;98.67
64200;BME280;50516;52.272;5.136;2023-12-29T12:35:03;100575.16;;;11.33;97.83
64200;BME280;50516;52.272;5.136;2023-12-29T12:37:38;100569.97;;;11.27;98.21
64200;BME280;50516;52.272;5.136;2023-12-29T12:40:03;100571.44;;;11.09;98.64
64200;BME280;50516;52.272;5.136;2023-12-29T12:42:29;100574.47;;;11.07;98.52
64200;BME280;50516;52.272;5.136;2023-12-29T12:45:10;100576.69;;;11.05;99.64
64200;BME280;50516;52.272;5.136;2023-12-29T12:47:42;100575.59;;;11.06;99.71
64200;BME280;50516;52.272;5.136;2023-12-29T12:50:10;100570.38;;;11.05;98.89
64200;BME280;50516;52.272;5.136;2023-12-29T12:52:40;100558.22;;;11.16;97.91
64200;BME280;50516;52.272;5.136;2023-12-29T12:55:08;100556.91;;;11.08;98.98
64200;BME280;50516;52.272;5.136;2023-12-29T12:57:35;100558.03;;;11.02;99.01
64200;BME280;50516;52.272;5.136;2023-12-29T13:00:02;100550.31;;;11.04;97.84
64200;BME280;50516;52.272;5.136;2023-12-29T13:02:28;100550.91;;;10.96;98.41